Time;durP1;ratioP1;P1;durP2;ratioP2;P2;SDS_P1;SDS_P2;PMS_P1;PMS_P2;Temp;Humidity;BMP_temperature;BMP_pressure;BME280_temperature;BME280_humidity;BME280_pressure;Samples;Min_cycle;Max_cycle;Signal;HPM_P1;HPM_P2
2022/04/27 00:01:50;;;;;;;;;;;;;;;19.36;75.70;96844.00;591662;240;65468;-73
2022/04/27 00:04:17;;;;;;;;;;;;;;;19.36;75.87;96841.34;591644;240;67081;-73
2022/04/27 00:06:45;;;;;;;;;;;;;;;19.36;75.76;96843.20;591632;240;66984;-73
2022/04/27 00:09:13;;;;;;;;;;;;;;;19.35;75.87;96847.73;591672;240;63028;-73
2022/04/27 00:11:41;;;;;;;;;;;;;;;19.35;76.14;96846.94;591670;240;67081;-73
2022/04/27 00:14:08;;;;;;;;;;;;;;;19.36;76.06;96845.87;591666;240;66965;-73
2022/04/27 00:16:36;;;;;;;;;;;;;;;19.35;75.98;96846.94;591665;240;65425;-73
2022/04/27 00:19:03;;;;;;;;;;;;;;;19.35;75.83;96846.94;591658;240;67083;-73
2022/04/27 00:21:31;;;;;;;;;;;;;;;19.36;75.98;96846.66;591678;240;67476;-73
2022/04/27 00:23:58;;;;;;;;;;;;;;;19.36;75.81;96851.20;591675;240;65216;-73
2022/04/27 00:26:26;;;;;;;;;;;;;;;19.36;75.90;96848.53;591649;240;67130;-73
2022/04/27 00:28:53;;;;;;;;;;;;;;;19.36;75.83;96848.53;591654;240;67918;-73
2022/04/27 00:31:21;;;;;;;;;;;;;;;19.35;75.77;96846.94;591661;240;62653;-73
2022/04/27 00:33:48;;;;;;;;;;;;;;;19.35;75.86;96844.28;591580;240;64859;-73
2022/04/27 00:36:16;;;;;;;;;;;;;;;19.35;76.07;96846.94;591665;240;66993;-73
2022/04/27 00:38:44;;;;;;;;;;;;;;;19.35;76.14;96852.27;591660;240;65428;-73
2022/04/27 00:41:11;;;;;;;;;;;;;;;19.36;75.94;96851.20;591661;240;65028;-73
2022/04/27 00:43:40;;;;;;;;;;;;;;;19.35;75.98;96849.61;591667;240;66758;-73
2022/04/27 00:46:13;;;;;;;;;;;;;;;19.34;76.13;96850.66;591653;240;66415;-73
2022/04/27 00:48:41;;;;;;;;;;;;;;;19.34;75.85;96850.66;591453;240;66631;-73
2022/04/27 00:51:10;;;;;;;;;;;;;;;19.33;75.75;96843.73;591665;240;67030;-73
2022/04/27 00:53:40;;;;;;;;;;;;;;;19.35;75.87;96849.61;591640;240;65340;-73
2022/04/27 00:56:07;;;;;;;;;;;;;;;19.34;76.04;96845.33;591718;240;67309;-73
2022/04/27 00:58:35;;;;;;;;;;;;;;;19.34;76.07;96840.79;591676;240;67154;-73
2022/04/27 01:01:02;;;;;;;;;;;;;;;19.34;75.77;96847.98;591641;240;64996;-74
2022/04/27 01:03:30;;;;;;;;;;;;;;;19.34;75.83;96848.78;591675;240;67079;-73
2022/04/27 01:05:58;;;;;;;;;;;;;;;19.33;75.97;96843.73;591678;240;64991;-74
2022/04/27 01:08:26;;;;;;;;;;;;;;;19.35;75.83;96844.28;591673;240;65511;-73
2022/04/27 01:10:54;;;;;;;;;;;;;;;19.34;76.02;96840.00;591696;240;64647;-74
2022/04/27 01:13:22;;;;;;;;;;;;;;;19.33;76.04;96838.41;591656;240;66771;-73
2022/04/27 01:15:51;;;;;;;;;;;;;;;19.33;76.01;96841.07;591674;240;42641;-74
2022/04/27 01:18:19;;;;;;;;;;;;;;;19.33;75.88;96846.40;591673;240;64610;-74
2022/04/27 01:20:47;;;;;;;;;;;;;;;19.34;76.07;96845.33;591668;240;66648;-73
2022/04/27 01:23:16;;;;;;;;;;;;;;;19.33;76.00;96844.53;591747;240;42459;-73
2022/04/27 01:25:48;;;;;;;;;;;;;;;19.33;76.14;96838.41;591664;240;67246;-74
2022/04/27 01:28:17;;;;;;;;;;;;;;;19.33;75.91;96849.06;591666;240;66756;-73
2022/04/27 01:30:44;;;;;;;;;;;;;;;19.32;75.82;96837.61;591674;240;64201;-73
2022/04/27 01:33:12;;;;;;;;;;;;;;;19.33;75.88;96844.53;591576;240;64406;-74
2022/04/27 01:35:40;;;;;;;;;;;;;;;19.33;75.99;96841.07;591644;240;66591;-73
2022/04/27 01:38:08;;;;;;;;;;;;;;;19.32;75.96;96842.94;591624;240;63167;-73
2022/04/27 01:40:35;;;;;;;;;;;;;;;19.33;75.98;96838.41;591640;240;64873;-73
2022/04/27 01:43:03;;;;;;;;;;;;;;;19.32;76.08;96836.81;591611;240;65191;-73
2022/04/27 01:45:31;;;;;;;;;;;;;;;19.33;76.29;96846.40;591636;240;66392;-74
2022/04/27 01:47:58;;;;;;;;;;;;;;;19.32;76.01;96844.81;591657;240;68022;-74
2022/04/27 01:50:26;;;;;;;;;;;;;;;19.32;76.19;96847.48;591653;240;64821;-73
2022/04/27 01:55:39;;;;;;;;;;;;;;;19.32;76.26;96850.94;591661;240;67099;-74
2022/04/27 01:58:07;;;;;;;;;;;;;;;19.32;76.21;96850.94;591668;240;67242;-73
2022/04/27 02:00:38;;;;;;;;;;;;;;;19.32;76.15;96847.48;591666;240;63959;-74
2022/04/27 02:03:05;;;;;;;;;;;;;;;19.32;76.03;96850.94;591662;240;66905;-73
2022/04/27 02:05:34;;;;;;;;;;;;;;;19.30;76.09;96851.19;591620;240;66973;-73
2022/04/27 02:08:03;;;;;;;;;;;;;;;19.32;75.91;96847.48;591611;240;66018;-74
2022/04/27 02:10:31;;;;;;;;;;;;;;;19.31;75.89;96851.98;591685;240;64698;-73
2022/04/27 02:12:59;;;;;;;;;;;;;;;19.31;75.69;96851.98;591641;240;67318;-73
2022/04/27 02:15:27;;;;;;;;;;;;;;;19.32;75.82;96852.80;591650;240;65964;-74
2022/04/27 02:17:56;;;;;;;;;;;;;;;19.31;75.85;96851.98;591191;240;48462;-74
2022/04/27 02:20:24;;;;;;;;;;;;;;;19.31;76.12;96851.98;591650;240;64890;-74
2022/04/27 02:22:52;;;;;;;;;;;;;;;19.31;76.10;96843.98;591520;240;63274;-73
2022/04/27 02:25:20;;;;;;;;;;;;;;;19.30;76.02;96851.19;591550;240;68781;-74
2022/04/27 02:27:49;;;;;;;;;;;;;;;19.30;75.86;96847.73;591529;240;68876;-74
2022/04/27 02:30:18;;;;;;;;;;;;;;;19.30;76.09;96859.18;591507;240;65380;-74
2022/04/27 02:32:46;;;;;;;;;;;;;;;19.31;75.96;96862.64;591466;240;68881;-71
2022/04/27 02:35:16;;;;;;;;;;;;;;;19.30;76.02;96861.84;591510;240;66253;-71
2022/04/27 02:37:43;;;;;;;;;;;;;;;19.30;76.10;96861.84;591482;240;65974;-71
2022/04/27 02:40:11;;;;;;;;;;;;;;;19.30;76.20;96861.84;591532;240;68549;-71
2022/04/27 02:42:39;;;;;;;;;;;;;;;19.29;76.01;96862.13;591519;240;66490;-71
2022/04/27 02:45:06;;;;;;;;;;;;;;;19.29;76.10;96860.25;591474;240;65695;-71
2022/04/27 02:47:34;;;;;;;;;;;;;;;19.29;76.41;96860.25;591508;240;69114;-71
2022/04/27 02:52:59;;;;;;;;;;;;;;;19.28;76.02;96866.63;591593;240;42734;-69
2022/04/27 02:55:28;;;;;;;;;;;;;;;19.29;75.93;96865.58;591244;240;47764;-69
2022/04/27 02:57:57;;;;;;;;;;;;;;;19.29;75.91;96867.45;591487;240;69418;-69
2022/04/27 03:00:25;;;;;;;;;;;;;;;19.28;75.94;96863.96;591513;240;62789;-69
2022/04/27 03:02:53;;;;;;;;;;;;;;;19.29;75.90;96876.24;591501;240;69057;-69
2022/04/27 03:05:22;;;;;;;;;;;;;;;19.29;76.08;96872.78;591551;240;47281;-70
2022/04/27 03:07:49;;;;;;;;;;;;;;;19.28;76.26;96871.95;591493;240;66231;-70
2022/04/27 03:10:17;;;;;;;;;;;;;;;19.29;76.19;96875.45;591517;240;68714;-70
2022/04/27 03:12:45;;;;;;;;;;;;;;;19.28;76.00;96871.95;591523;240;68588;-72
2022/04/27 03:15:13;;;;;;;;;;;;;;;19.28;76.16;96879.95;591499;240;65414;-72
2022/04/27 03:17:40;;;;;;;;;;;;;;;19.27;76.25;96873.03;591486;240;66143;-72
2022/04/27 03:20:08;;;;;;;;;;;;;;;19.29;76.05;96888.77;591500;240;68947;-73
2022/04/27 03:22:36;;;;;;;;;;;;;;;19.27;76.24;96889.02;591457;240;63091;-72
2022/04/27 03:25:05;;;;;;;;;;;;;;;19.28;76.35;96890.61;591522;240;69382;-72
2022/04/27 03:27:32;;;;;;;;;;;;;;;19.28;76.29;96901.27;591524;240;68723;-72
2022/04/27 03:30:01;;;;;;;;;;;;;;;19.28;76.19;96901.27;591503;240;62681;-72
2022/04/27 03:32:29;;;;;;;;;;;;;;;19.28;76.24;96905.80;591024;240;69121;-73
2022/04/27 03:34:58;;;;;;;;;;;;;;;19.28;76.23;96898.60;582240;241;45812;-72
2022/04/27 03:37:27;;;;;;;;;;;;;;;19.27;76.03;96897.01;582349;241;42494;-72
2022/04/27 03:39:55;;;;;;;;;;;;;;;19.27;76.04;96898.87;582320;243;68736;-72
2022/04/27 03:42:23;;;;;;;;;;;;;;;19.27;76.33;96902.34;582262;243;69220;-73
2022/04/27 03:44:53;;;;;;;;;;;;;;;19.28;76.05;96903.92;582050;243;45162;-72
2022/04/27 03:47:22;;;;;;;;;;;;;;;19.27;75.92;96905.00;582316;241;45450;-72
2022/04/27 03:49:51;;;;;;;;;;;;;;;19.27;76.17;96907.67;582294;241;68770;-72
2022/04/27 03:52:19;;;;;;;;;;;;;;;19.27;75.98;96912.99;580396;243;67434;-72
2022/04/27 03:54:48;;;;;;;;;;;;;;;19.26;75.97;96914.07;582287;243;66113;-73
2022/04/27 03:57:16;;;;;;;;;;;;;;;19.27;76.17;96918.33;582315;243;69170;-72
2022/04/27 03:59:43;;;;;;;;;;;;;;;19.27;76.12;96920.20;582311;243;65352;-72
2022/04/27 04:02:11;;;;;;;;;;;;;;;19.27;76.25;96920.20;582259;243;66488;-72
2022/04/27 04:04:39;;;;;;;;;;;;;;;19.26;76.37;96923.90;582305;243;68764;-74
2022/04/27 04:07:06;;;;;;;;;;;;;;;19.27;76.54;96925.52;582301;243;65284;-72
2022/04/27 04:09:36;;;;;;;;;;;;;;;19.26;76.64;96930.05;581510;243;48478;-73
2022/04/27 04:12:04;;;;;;;;;;;;;;;19.26;76.23;96924.73;582266;243;66854;-73
2022/04/27 04:14:50;;;;;;;;;;;;;;;19.25;76.17;96925.77;582382;241;39042;-73
2022/04/27 04:17:26;;;;;;;;;;;;;;;19.26;76.24;96932.72;581837;241;51186;-73
2022/04/27 04:19:55;;;;;;;;;;;;;;;19.25;76.06;96933.77;582121;243;47127;-72
2022/04/27 04:22:24;;;;;;;;;;;;;;;19.26;75.95;96943.38;578388;241;46226;-73
2022/04/27 04:30:31;;;;;;;;;;;;;;;19.25;76.09;96938.30;582319;243;63397;-74
2022/04/27 04:33:03;;;;;;;;;;;;;;;19.26;75.84;96942.55;582053;240;48061;-73
2022/04/27 04:35:32;;;;;;;;;;;;;;;19.25;75.82;96940.96;582234;243;46572;-73
2022/04/27 04:38:00;;;;;;;;;;;;;;;19.25;76.21;96947.09;582277;243;63102;-73
2022/04/27 04:40:28;;;;;;;;;;;;;;;19.25;75.93;96936.42;582157;243;69398;-73
2022/04/27 04:42:57;;;;;;;;;;;;;;;19.24;76.15;96937.50;582270;243;68441;-73
2022/04/27 04:45:25;;;;;;;;;;;;;;;19.24;75.96;96942.83;582280;243;62669;-74
2022/04/27 04:48:11;;;;;;;;;;;;;;;19.24;76.22;96937.50;582386;243;42248;-73
2022/04/27 04:50:41;;;;;;;;;;;;;;;19.25;76.47;96943.63;582020;241;50912;-73
2022/04/27 04:53:10;;;;;;;;;;;;;;;19.24;76.46;96942.83;581942;241;43293;-73
2022/04/27 04:55:39;;;;;;;;;;;;;;;19.25;76.35;96948.95;574090;243;48521;-73
2022/04/27 04:58:21;;;;;;;;;;;;;;;19.24;76.09;96945.49;573591;243;48463;-72
2022/04/27 05:00:50;;;;;;;;;;;;;;;19.25;76.23;96946.29;580880;243;44245;-73
2022/04/27 05:03:37;;;;;;;;;;;;;;;19.25;76.14;96948.95;569060;246;50376;-72
2022/04/27 05:06:12;;;;;;;;;;;;;;;19.24;76.10;96945.49;577515;243;49511;-73
2022/04/27 05:08:54;;;;;;;;;;;;;;;19.24;76.06;96948.16;576950;243;47186;-73
2022/04/27 05:11:26;;;;;;;;;;;;;;;19.24;76.28;96942.83;582157;243;47034;-73
2022/04/27 05:14:01;;;;;;;;;;;;;;;19.24;76.30;96948.16;581726;243;50783;-73
2022/04/27 05:16:37;;;;;;;;;;;;;;;19.24;76.35;96947.36;582311;241;43819;-74
2022/04/27 05:19:23;;;;;;;;;;;;;;;19.24;76.54;96942.83;582248;243;50801;-73
2022/04/27 05:22:09;;;;;;;;;;;;;;;19.24;76.72;96939.37;582412;243;42726;-73
2022/04/27 05:24:54;;;;;;;;;;;;;;;19.24;76.47;96953.48;582474;241;39049;-73
2022/04/27 05:27:30;;;;;;;;;;;;;;;19.24;76.84;96953.48;575902;243;49493;-74
2022/04/27 05:33:00;;;;;;;;;;;;;;;19.23;76.55;96951.89;583728;240;43803;-72
2022/04/27 05:35:45;;;;;;;;;;;;;;;19.23;76.47;96946.56;589849;240;39999;-72
2022/04/27 05:38:17;;;;;;;;;;;;;;;19.23;76.36;96951.06;589702;240;46723;-73
2022/04/27 05:41:00;;;;;;;;;;;;;;;19.23;76.17;96951.89;577848;240;47975;-73
2022/04/27 05:43:38;;;;;;;;;;;;;;;19.23;76.33;96949.23;583692;240;51035;-73
2022/04/27 05:46:24;;;;;;;;;;;;;;;19.24;76.12;96952.69;589879;240;41811;-73
2022/04/27 05:49:09;;;;;;;;;;;;;;;19.24;76.09;96964.14;589816;240;38766;-73
2022/04/27 05:51:54;;;;;;;;;;;;;;;19.24;76.40;96966.02;588906;240;50404;-72
2022/04/27 05:54:24;;;;;;;;;;;;;;;19.23;76.50;96964.39;577963;240;51582;-76
2022/04/27 05:56:56;;;;;;;;;;;;;;;19.23;76.39;96965.22;589575;240;44052;-72
2022/04/27 05:59:43;;;;;;;;;;;;;;;19.25;76.35;96970.27;589676;240;40631;-73
2022/04/27 06:02:28;;;;;;;;;;;;;;;19.25;76.93;96964.94;589800;240;44634;-73
2022/04/27 06:04:56;;;;;;;;;;;;;;;19.24;76.45;96964.14;590725;237;63462;-73
2022/04/27 06:07:25;;;;;;;;;;;;;;;19.25;76.45;96970.27;596857;237;66483;-73
2022/04/27 06:09:54;;;;;;;;;;;;;;;19.24;73.97;96971.34;596940;237;66078;-72
2022/04/27 06:12:33;;;;;;;;;;;;;;;19.26;77.32;96978.02;596756;237;44130;-72
2022/04/27 06:14:57;;;;;;;;;;;;;;;19.26;77.32;96980.67;590193;237;49487;-74
2022/04/27 06:17:26;;;;;;;;;;;;;;;19.28;73.32;96975.08;596867;237;47158;-72
2022/04/27 06:19:55;;;;;;;;;;;;;;;19.32;73.45;96976.17;596961;237;62944;-72
2022/04/27 06:22:23;;;;;;;;;;;;;;;19.33;74.49;96980.42;596857;237;66481;-77
2022/04/27 06:24:51;;;;;;;;;;;;;;;19.34;74.20;96973.23;596997;237;69093;-70
2022/04/27 06:27:26;;;;;;;;;;;;;;;19.37;73.62;96983.36;596339;237;44119;-72
2022/04/27 06:29:53;;;;;;;;;;;;;;;19.37;74.47;96978.03;596923;237;68650;-72
2022/04/27 06:32:21;;;;;;;;;;;;;;;19.39;74.31;96981.25;596956;237;68544;-72
2022/04/27 06:34:49;;;;;;;;;;;;;;;19.40;73.48;96982.87;596984;237;63327;-72
2022/04/27 06:37:17;;;;;;;;;;;;;;;19.41;72.97;96974.59;596905;237;66047;-69
2022/04/27 06:39:45;;;;;;;;;;;;;;;19.42;72.83;96986.05;596997;237;66416;-68
2022/04/27 06:42:13;;;;;;;;;;;;;;;19.43;72.74;96988.47;597009;237;65355;-72
2022/04/27 06:45:02;;;;;;;;;;;;;;;19.44;73.25;96983.93;597053;237;39359;-73
2022/04/27 06:47:47;;;;;;;;;;;;;;;19.44;72.45;96983.93;596987;237;40621;-73
2022/04/27 06:50:33;;;;;;;;;;;;;;;19.44;72.77;96984.73;596954;237;41245;-73
2022/04/27 06:53:18;;;;;;;;;;;;;;;19.45;73.06;96980.19;596950;237;44744;-78
2022/04/27 06:56:04;;;;;;;;;;;;;;;19.46;72.68;96979.15;597048;237;43446;-72
2022/04/27 06:58:43;;;;;;;;;;;;;;;19.46;72.74;96976.48;587731;237;46961;-72
2022/04/27 07:01:13;;;;;;;;;;;;;;;19.47;72.63;96984.20;593352;237;50955;-73
2022/04/27 07:03:42;;;;;;;;;;;;;;;19.47;72.40;96972.75;596958;237;68728;-72
2022/04/27 07:06:10;;;;;;;;;;;;;;;19.47;72.05;96978.88;596976;237;65100;-73
2022/04/27 07:08:38;;;;;;;;;;;;;;;19.48;72.30;96975.16;596916;237;68377;-72
2022/04/27 07:11:06;;;;;;;;;;;;;;;19.48;72.01;96969.83;595799;237;68499;-73
2022/04/27 07:13:33;;;;;;;;;;;;;;;19.51;71.98;96968.51;596925;237;64906;-72
2022/04/27 07:16:01;;;;;;;;;;;;;;;19.50;71.85;96965.02;596945;237;68850;-72
2022/04/27 07:18:30;;;;;;;;;;;;;;;19.52;71.92;96967.44;596822;237;68543;-71
2022/04/27 07:20:58;;;;;;;;;;;;;;;19.53;71.45;96966.36;597008;237;65393;-71
2022/04/27 07:23:25;;;;;;;;;;;;;;;19.53;71.67;96966.36;596970;237;66331;-74
2022/04/27 07:25:53;;;;;;;;;;;;;;;19.55;71.67;96963.45;596944;237;68336;-73
2022/04/27 07:28:20;;;;;;;;;;;;;;;19.55;71.43;96969.58;596910;235;62835;-74
2022/04/27 07:30:48;;;;;;;;;;;;;;;19.57;71.60;96977.32;597003;237;66545;-74
2022/04/27 07:33:15;;;;;;;;;;;;;;;19.56;71.29;96965.86;593825;237;66652;-69
2022/04/27 07:35:44;;;;;;;;;;;;;;;19.56;70.73;96965.86;588806;241;65178;-66
2022/04/27 07:38:12;;;;;;;;;;;;;;;19.61;68.80;96973.84;588813;241;66492;-69
2022/04/27 07:40:40;;;;;;;;;;;;;;;19.63;68.07;96970.94;588751;238;68634;-73
2022/04/27 07:43:07;;;;;;;;;;;;;;;19.65;68.66;96964.28;588880;241;65410;-69
2022/04/27 07:45:35;;;;;;;;;;;;;;;19.65;68.96;96966.94;588780;241;68590;-71
2022/04/27 07:48:02;;;;;;;;;;;;;;;19.66;69.41;96968.56;588800;237;68549;-70
2022/04/27 07:50:30;;;;;;;;;;;;;;;19.66;69.59;96963.23;588788;241;65379;-70
2022/04/27 07:52:57;;;;;;;;;;;;;;;19.66;69.56;96963.23;588788;241;68517;-72
2022/04/27 07:55:25;;;;;;;;;;;;;;;19.66;69.32;96963.23;588822;241;68337;-70
2022/04/27 07:57:52;;;;;;;;;;;;;;;19.66;69.25;96955.23;588822;241;65056;-73
2022/04/27 08:00:20;;;;;;;;;;;;;;;19.68;69.20;96958.44;588815;241;68672;-72
2022/04/27 08:02:47;;;;;;;;;;;;;;;19.70;69.55;96960.86;588700;241;69605;-73
2022/04/27 08:05:17;;;;;;;;;;;;;;;19.70;69.36;96963.53;588827;238;65400;-76
2022/04/27 08:07:50;;;;;;;;;;;;;;;19.71;69.25;96960.58;588810;241;66531;-75
2022/04/27 08:10:16;;;;;;;;;;;;;;;19.72;69.35;96958.70;588555;241;66720;-77
2022/04/27 08:12:47;;;;;;;;;;;;;;;19.73;69.22;96960.33;588843;241;65371;-74
2022/04/27 08:15:15;;;;;;;;;;;;;;;19.73;69.21;96952.33;588787;241;68786;-81
2022/04/27 08:17:52;;;;;;;;;;;;;;;19.74;69.09;96959.25;588793;241;68544;-75
2022/04/27 08:23:07;;;;;;;;;;;;;;;19.77;68.78;96947.27;588747;241;68327;-74
2022/04/27 08:25:36;;;;;;;;;;;;;;;19.78;68.75;96946.19;588778;241;68774;-74
2022/04/27 08:28:06;;;;;;;;;;;;;;;19.79;68.67;96942.47;588818;241;63250;-72
2022/04/27 08:30:34;;;;;;;;;;;;;;;19.80;68.68;96946.73;588724;241;66741;-75
2022/04/27 08:33:02;;;;;;;;;;;;;;;19.81;68.50;96946.48;591314;237;68760;-74
2022/04/27 08:35:31;;;;;;;;;;;;;;;19.82;68.53;96942.73;598239;235;62955;-75
2022/04/27 08:37:59;;;;;;;;;;;;;;;19.85;68.46;96938.73;598192;237;69207;-75
2022/04/27 08:40:27;;;;;;;;;;;;;;;19.85;68.68;96938.73;598183;235;68680;-73
2022/04/27 08:42:55;;;;;;;;;;;;;;;19.88;68.58;96935.54;598213;237;65533;-74
2022/04/27 08:45:23;;;;;;;;;;;;;;;19.88;67.96;96932.88;598202;237;68565;-76
2022/04/27 08:47:52;;;;;;;;;;;;;;;19.90;68.35;96931.55;597774;237;46051;-74
2022/04/27 08:50:21;;;;;;;;;;;;;;;19.96;67.98;96935.81;598219;237;63905;-71
2022/04/27 08:52:49;;;;;;;;;;;;;;;19.96;67.67;96933.14;598166;237;66706;-71
2022/04/27 08:55:17;;;;;;;;;;;;;;;19.98;67.92;96913.42;598222;237;66636;-73
2022/04/27 08:57:45;;;;;;;;;;;;;;;19.99;67.45;96925.68;598149;237;65216;-74
2022/04/27 09:00:14;;;;;;;;;;;;;;;20.00;67.30;96924.61;598225;237;68912;-77
2022/04/27 09:02:42;;;;;;;;;;;;;;;20.01;67.31;96918.22;598263;237;69359;-74
2022/04/27 09:05:13;;;;;;;;;;;;;;;20.03;67.51;96916.89;598279;237;63472;-74
2022/04/27 09:07:42;;;;;;;;;;;;;;;20.03;67.33;96914.22;598300;237;66463;-76
2022/04/27 09:10:13;;;;;;;;;;;;;;;20.04;67.52;96907.81;598236;235;68587;-74
2022/04/27 09:12:45;;;;;;;;;;;;;;;20.07;67.47;96909.14;598202;237;63094;-77
2022/04/27 09:15:14;;;;;;;;;;;;;;;20.10;67.57;96906.73;598022;237;68669;-72
2022/04/27 09:23:26;;;;;;;;;;;;;;;20.18;67.34;96900.86;598347;237;66493;-69
2022/04/27 09:26:00;;;;;;;;;;;;;;;20.20;67.33;96907.81;598213;237;68554;-70
2022/04/27 09:28:25;;;;;;;;;;;;;;;20.22;67.20;96908.35;597901;237;65205;-70
2022/04/27 09:30:52;;;;;;;;;;;;;;;20.25;67.17;96900.61;598272;237;66452;-70
2022/04/27 09:33:36;;;;;;;;;;;;;;;20.27;67.13;96900.31;598187;237;66116;-70
2022/04/27 09:36:05;;;;;;;;;;;;;;;20.28;67.21;96899.27;598213;237;65406;-69
2022/04/27 09:38:43;;;;;;;;;;;;;;;20.31;67.06;96886.18;597655;237;68159;-69
2022/04/27 09:41:11;;;;;;;;;;;;;;;20.32;67.19;96890.44;598240;237;68421;-69
2022/04/27 09:43:46;;;;;;;;;;;;;;;20.34;67.16;96890.18;598248;237;65358;-77
2022/04/27 09:46:23;;;;;;;;;;;;;;;20.35;67.10;96886.43;598293;237;66457;-70
2022/04/27 09:48:52;;;;;;;;;;;;;;;20.35;67.22;96892.59;598238;237;66220;-70
2022/04/27 09:51:20;;;;;;;;;;;;;;;20.37;66.99;96889.64;596472;234;62946;-70
2022/04/27 09:53:48;;;;;;;;;;;;;;;20.38;67.02;96885.92;598299;237;66270;-69
2022/04/27 09:56:17;;;;;;;;;;;;;;;20.40;67.05;96889.09;598160;237;66281;-69
2022/04/27 09:58:47;;;;;;;;;;;;;;;20.40;67.13;96878.42;598283;237;65314;-69
2022/04/27 10:01:16;;;;;;;;;;;;;;;20.42;67.20;96878.16;598206;237;68820;-68
2022/04/27 10:03:45;;;;;;;;;;;;;;;20.42;67.11;96876.28;598239;237;66440;-67
2022/04/27 10:06:12;;;;;;;;;;;;;;;20.44;67.11;96884.04;598252;237;63356;-68
2022/04/27 10:08:41;;;;;;;;;;;;;;;20.45;67.03;96877.62;598205;237;66690;-68
2022/04/27 10:11:10;;;;;;;;;;;;;;;20.46;67.03;96876.53;596512;237;65758;-68
2022/04/27 10:13:38;;;;;;;;;;;;;;;20.48;67.11;96874.41;598294;237;65322;-68
2022/04/27 10:16:06;;;;;;;;;;;;;;;20.48;67.12;96875.20;598170;237;68833;-68
2022/04/27 10:18:33;;;;;;;;;;;;;;;20.48;67.03;96869.86;598244;237;68689;-68
2022/04/27 10:21:04;;;;;;;;;;;;;;;20.49;66.93;96866.14;598169;237;63270;-68
2022/04/27 10:23:32;;;;;;;;;;;;;;;20.50;67.02;96866.93;598057;237;68691;-68
2022/04/27 10:26:09;;;;;;;;;;;;;;;20.52;66.93;96865.59;598302;237;66205;-68
2022/04/27 10:28:38;;;;;;;;;;;;;;;20.53;66.89;96859.20;598272;237;65431;-68
2022/04/27 10:31:08;;;;;;;;;;;;;;;20.54;66.90;96852.81;598167;237;66474;-68
2022/04/27 10:33:51;;;;;;;;;;;;;;;20.55;66.98;96859.73;598239;237;67852;-68
2022/04/27 10:36:22;;;;;;;;;;;;;;;20.56;66.94;96861.33;598242;237;65663;-68
2022/04/27 10:39:07;;;;;;;;;;;;;;;20.57;66.76;96846.92;598182;237;68808;-69
2022/04/27 10:41:35;;;;;;;;;;;;;;;20.58;66.83;96848.52;598299;237;66460;-68
2022/04/27 10:44:02;;;;;;;;;;;;;;;20.59;66.86;96855.44;598204;237;65179;-69
2022/04/27 10:46:36;;;;;;;;;;;;;;;20.59;66.84;96850.09;598138;237;68794;-75
2022/04/27 10:49:06;;;;;;;;;;;;;;;20.59;66.74;96852.77;586177;237;72106;-76
2022/04/27 10:51:50;;;;;;;;;;;;;;;20.62;66.82;96854.09;597593;237;63008;-71
2022/04/27 10:54:19;;;;;;;;;;;;;;;20.64;66.89;96845.83;583616;240;68366;-68
2022/04/27 10:56:47;;;;;;;;;;;;;;;20.64;66.85;96841.28;593778;237;66581;-69
2022/04/27 10:59:32;;;;;;;;;;;;;;;20.65;66.81;96836.73;598058;237;63020;-70
2022/04/27 11:02:00;;;;;;;;;;;;;;;20.67;67.16;96834.59;598243;237;68866;-70
2022/04/27 11:04:28;;;;;;;;;;;;;;;20.66;66.62;96833.81;598256;237;68697;-70
2022/04/27 11:06:57;;;;;;;;;;;;;;;20.63;66.78;96825.55;598181;237;63060;-70
2022/04/27 11:09:26;;;;;;;;;;;;;;;20.62;66.98;96824.73;598138;237;68887;-72
2022/04/27 11:11:55;;;;;;;;;;;;;;;20.61;67.00;96821.27;598286;237;66469;-70
2022/04/27 11:14:31;;;;;;;;;;;;;;;20.63;67.10;96822.88;598215;237;65899;-69
2022/04/27 11:16:59;;;;;;;;;;;;;;;20.65;67.23;96823.39;598243;237;66602;-69
2022/04/27 11:19:40;;;;;;;;;;;;;;;20.63;67.17;96817.54;598305;237;68721;-71
2022/04/27 11:22:15;;;;;;;;;;;;;;;20.66;67.30;96822.33;598207;237;65556;-72
2022/04/27 11:24:49;;;;;;;;;;;;;;;20.67;67.21;96819.38;598260;237;68811;-72
2022/04/27 11:27:13;;;;;;;;;;;;;;;20.69;66.69;96822.58;597971;237;67383;-69
2022/04/27 11:29:41;;;;;;;;;;;;;;;20.69;66.85;96814.56;597364;237;65154;-72
2022/04/27 11:32:09;;;;;;;;;;;;;;;20.70;66.78;96818.03;596502;237;68701;-69
2022/04/27 11:34:37;;;;;;;;;;;;;;;20.72;66.64;96810.55;590584;237;67613;-70
2022/04/27 11:37:15;;;;;;;;;;;;;;;20.72;66.67;96808.67;590138;240;66060;-70
2022/04/27 11:39:45;;;;;;;;;;;;;;;20.72;66.67;96803.33;589716;240;68725;-69
2022/04/27 11:42:14;;;;;;;;;;;;;;;20.72;66.51;96802.54;589786;240;66186;-69
2022/04/27 11:44:41;;;;;;;;;;;;;;;20.72;66.62;96797.20;590118;240;63975;-71
2022/04/27 11:47:27;;;;;;;;;;;;;;;20.73;66.53;96801.45;590224;240;66467;-70
2022/04/27 11:49:58;;;;;;;;;;;;;;;20.73;66.56;96796.12;590175;240;66854;-70
2022/04/27 11:52:28;;;;;;;;;;;;;;;20.75;66.41;96801.98;590204;240;65059;-69
2022/04/27 11:55:18;;;;;;;;;;;;;;;20.75;66.49;96799.31;590199;238;68837;-70
2022/04/27 11:57:44;;;;;;;;;;;;;;;20.76;66.33;96808.92;589986;240;68535;-71
2022/04/27 12:00:13;;;;;;;;;;;;;;;20.77;66.26;96802.52;590243;240;64078;-73
2022/04/27 12:02:42;;;;;;;;;;;;;;;20.77;66.38;96805.19;589999;240;66475;-73
2022/04/27 12:05:10;;;;;;;;;;;;;;;20.78;66.15;96809.45;590272;240;68671;-72
2022/04/27 12:07:38;;;;;;;;;;;;;;;20.80;66.17;96808.10;590289;240;63126;-72
2022/04/27 12:10:07;;;;;;;;;;;;;;;20.80;65.90;96824.13;590136;240;68408;-72
2022/04/27 12:12:37;;;;;;;;;;;;;;;20.81;65.88;96823.05;590189;240;68945;-72
2022/04/27 12:15:07;;;;;;;;;;;;;;;20.83;65.84;96844.15;590245;240;65451;-72
2022/04/27 12:17:44;;;;;;;;;;;;;;;20.85;65.82;96855.37;590192;240;69406;-73
2022/04/27 12:20:30;;;;;;;;;;;;;;;20.84;65.73;96857.24;587359;240;65422;-73
2022/04/27 12:22:59;;;;;;;;;;;;;;;20.91;65.25;96859.61;585164;240;64686;-71
2022/04/27 12:25:34;;;;;;;;;;;;;;;20.89;65.56;96855.61;590186;238;68863;-72
2022/04/27 12:28:05;;;;;;;;;;;;;;;20.88;65.56;96856.70;590253;240;68663;-71
2022/04/27 12:30:34;;;;;;;;;;;;;;;20.87;65.62;96861.24;590221;238;65557;-70
2022/04/27 12:33:02;;;;;;;;;;;;;;;20.88;65.75;96876.19;590000;239;68643;-70
2022/04/27 12:38:19;;;;;;;;;;;;;;;20.89;65.75;96866.30;590282;240;65467;-70
2022/04/27 12:40:47;;;;;;;;;;;;;;;20.90;65.80;96863.36;590087;240;65552;-70
2022/04/27 12:43:15;;;;;;;;;;;;;;;21.00;65.83;96865.17;590210;240;68731;-70
2022/04/27 12:45:44;;;;;;;;;;;;;;;21.01;65.33;96858.78;590204;240;62977;-71
2022/04/27 12:48:13;;;;;;;;;;;;;;;21.03;65.27;96854.76;589508;239;68961;-71
2022/04/27 12:50:49;;;;;;;;;;;;;;;21.04;64.94;96847.53;589684;240;68604;-70
2022/04/27 12:53:19;;;;;;;;;;;;;;;21.05;64.86;96846.45;590196;240;46629;-70
2022/04/27 12:55:47;;;;;;;;;;;;;;;21.08;64.89;96842.43;590222;240;68675;-69
2022/04/27 12:58:17;;;;;;;;;;;;;;;21.09;65.37;96849.36;589767;240;66274;-69
2022/04/27 13:00:48;;;;;;;;;;;;;;;21.05;64.98;96863.27;589902;240;65442;-70
2022/04/27 13:03:16;;;;;;;;;;;;;;;21.05;65.24;96873.96;590186;240;68737;-70
2022/04/27 13:05:46;;;;;;;;;;;;;;;21.04;65.43;96883.06;590255;240;68946;-70
2022/04/27 13:08:13;;;;;;;;;;;;;;;21.05;65.50;96873.96;590237;240;63085;-69
2022/04/27 13:13:26;;;;;;;;;;;;;;;21.05;65.71;96862.48;590217;240;68822;-69
2022/04/27 13:15:54;;;;;;;;;;;;;;;21.04;65.65;96853.67;590134;240;63023;-69
2022/04/27 13:18:22;;;;;;;;;;;;;;;21.06;65.67;96856.88;590164;240;66652;-68
2022/04/27 13:20:52;;;;;;;;;;;;;;;21.08;65.63;96853.91;590229;240;66554;-69
2022/04/27 13:23:20;;;;;;;;;;;;;;;21.10;65.62;96864.34;590117;240;62958;-69
2022/04/27 13:25:48;;;;;;;;;;;;;;;21.10;65.66;96865.13;590228;240;68339;-69
2022/04/27 13:28:16;;;;;;;;;;;;;;;21.12;65.77;96864.88;590188;240;68540;-68
2022/04/27 13:30:43;;;;;;;;;;;;;;;21.12;65.71;96865.66;590146;240;63628;-69
2022/04/27 13:33:11;;;;;;;;;;;;;;;21.13;65.71;96861.91;590137;239;69174;-69